sensor_id;sensor_type;location;lat;lon;timestamp;pressure;altitude;pressure_sealevel;temperature;humidity
22031;BME280;11179;52.106;21.024;2022-07-29T00:01:05;100947.78;;;13.24;63.02
22031;BME280;11179;52.106;21.024;2022-07-29T00:03:30;100946.66;;;13.20;63.00
22031;BME280;11179;52.106;21.024;2022-07-29T00:05:56;100948.81;;;13.18;63.24
22031;BME280;11179;52.106;21.024;2022-07-29T00:08:21;100949.38;;;13.15;63.57
22031;BME280;11179;52.106;21.024;2022-07-29T00:10:46;100948.78;;;13.13;63.49
22031;BME280;11179;52.106;21.024;2022-07-29T00:13:12;100951.22;;;13.10;63.68
22031;BME280;11179;52.106;21.024;2022-07-29T00:15:37;100957.00;;;13.08;63.86
22031;BME280;11179;52.106;21.024;2022-07-29T00:18:03;100955.59;;;13.06;63.80
22031;BME280;11179;52.106;21.024;2022-07-29T00:20:29;100957.81;;;13.04;63.68
22031;BME280;11179;52.106;21.024;2022-07-29T00:22:54;100958.84;;;12.97;63.63
22031;BME280;11179;52.106;21.024;2022-07-29T00:25:19;100954.41;;;12.96;63.84
22031;BME280;11179;52.106;21.024;2022-07-29T00:27:45;100955.75;;;12.94;63.89
22031;BME280;11179;52.106;21.024;2022-07-29T00:30:11;100958.50;;;12.94;64.26
22031;BME280;11179;52.106;21.024;2022-07-29T00:32:37;100964.03;;;12.94;64.14
22031;BME280;11179;52.106;21.024;2022-07-29T00:35:03;100956.31;;;12.91;64.02
22031;BME280;11179;52.106;21.024;2022-07-29T00:37:47;100958.75;;;12.87;64.28
22031;BME280;11179;52.106;21.024;2022-07-29T00:40:13;100960.06;;;12.85;64.19
22031;BME280;11179;52.106;21.024;2022-07-29T00:42:46;100954.25;;;12.81;64.16
22031;BME280;11179;52.106;21.024;2022-07-29T00:45:12;100957.00;;;12.81;64.25
22031;BME280;11179;52.106;21.024;2022-07-29T00:47:38;100951.75;;;12.80;64.38
22031;BME280;11179;52.106;21.024;2022-07-29T00:50:04;100944.03;;;12.77;64.57
22031;BME280;11179;52.106;21.024;2022-07-29T00:52:31;100941.25;;;12.77;64.59
22031;BME280;11179;52.106;21.024;2022-07-29T00:54:57;100938.75;;;12.75;64.84
22031;BME280;11179;52.106;21.024;2022-07-29T00:57:23;100942.88;;;12.73;64.96
22031;BME280;11179;52.106;21.024;2022-07-29T00:59:48;100948.13;;;12.74;64.90
22031;BME280;11179;52.106;21.024;2022-07-29T01:02:13;100938.44;;;12.72;64.94
22031;BME280;11179;52.106;21.024;2022-07-29T01:04:39;100950.06;;;12.79;65.08
22031;BME280;11179;52.106;21.024;2022-07-29T01:07:05;100937.72;;;12.81;64.92
22031;BME280;11179;52.106;21.024;2022-07-29T01:09:32;100943.53;;;12.85;65.24
22031;BME280;11179;52.106;21.024;2022-07-29T01:11:58;100935.34;;;12.90;65.25
22031;BME280;11179;52.106;21.024;2022-07-29T01:14:25;100942.78;;;12.89;65.45
22031;BME280;11179;52.106;21.024;2022-07-29T01:16:58;100939.13;;;12.84;65.51
22031;BME280;11179;52.106;21.024;2022-07-29T01:19:52;100943.63;;;12.90;65.67
22031;BME280;11179;52.106;21.024;2022-07-29T01:22:35;100943.97;;;12.98;65.49
22031;BME280;11179;52.106;21.024;2022-07-29T01:31:03;100947.28;;;13.01;64.70
22031;BME280;11179;52.106;21.024;2022-07-29T01:33:31;100949.22;;;13.00;64.86
22031;BME280;11179;52.106;21.024;2022-07-29T01:36:23;100948.31;;;12.94;65.32
22031;BME280;11179;52.106;21.024;2022-07-29T01:39:01;100940.84;;;12.90;65.17
22031;BME280;11179;52.106;21.024;2022-07-29T01:41:29;100954.63;;;12.90;65.49
22031;BME280;11179;52.106;21.024;2022-07-29T01:43:59;100951.31;;;12.88;65.45
22031;BME280;11179;52.106;21.024;2022-07-29T01:46:34;100948.53;;;12.88;65.64
22031;BME280;11179;52.106;21.024;2022-07-29T01:54:16;100946.78;;;13.04;65.73
22031;BME280;11179;52.106;21.024;2022-07-29T01:56:45;100944.84;;;13.04;65.42
22031;BME280;11179;52.106;21.024;2022-07-29T01:59:12;100957.66;;;13.15;65.58
22031;BME280;11179;52.106;21.024;2022-07-29T02:01:39;100946.03;;;13.13;65.60
22031;BME280;11179;52.106;21.024;2022-07-29T02:04:07;100957.41;;;13.22;65.24
22031;BME280;11179;52.106;21.024;2022-07-29T02:06:37;100961.00;;;13.22;65.54
22031;BME280;11179;52.106;21.024;2022-07-29T02:09:04;100958.25;;;13.22;65.41
22031;BME280;11179;52.106;21.024;2022-07-29T02:11:33;100961.00;;;13.22;65.39
22031;BME280;11179;52.106;21.024;2022-07-29T02:14:00;100956.56;;;13.16;65.49
22031;BME280;11179;52.106;21.024;2022-07-29T02:16:26;100960.09;;;13.12;65.05
22031;BME280;11179;52.106;21.024;2022-07-29T02:18:55;100961.66;;;13.03;65.40
22031;BME280;11179;52.106;21.024;2022-07-29T02:21:24;100960.81;;;13.02;65.49
22031;BME280;11179;52.106;21.024;2022-07-29T02:23:52;100956.97;;;13.03;65.57
22031;BME280;11179;52.106;21.024;2022-07-29T02:26:20;100961.91;;;13.01;65.66
22031;BME280;11179;52.106;21.024;2022-07-29T02:28:47;100953.84;;;12.94;65.42
22031;BME280;11179;52.106;21.024;2022-07-29T02:31:16;100964.00;;;12.89;65.55
22031;BME280;11179;52.106;21.024;2022-07-29T02:33:45;100963.66;;;12.85;65.97
22031;BME280;11179;52.106;21.024;2022-07-29T02:36:12;100951.81;;;12.85;66.25
22031;BME280;11179;52.106;21.024;2022-07-29T02:38:41;100959.00;;;12.86;66.30
22031;BME280;11179;52.106;21.024;2022-07-29T02:41:23;100957.66;;;12.88;66.36
22031;BME280;11179;52.106;21.024;2022-07-29T02:43:55;100961.25;;;12.89;66.71
22031;BME280;11179;52.106;21.024;2022-07-29T02:46:30;100962.91;;;12.90;66.40
22031;BME280;11179;52.106;21.024;2022-07-29T02:51:34;100968.94;;;12.87;66.51
22031;BME280;11179;52.106;21.024;2022-07-29T02:54:05;100963.41;;;12.87;66.83
22031;BME280;11179;52.106;21.024;2022-07-29T02:56:33;100962.63;;;12.91;66.43
22031;BME280;11179;52.106;21.024;2022-07-29T02:59:06;100965.19;;;12.98;66.62
22031;BME280;11179;52.106;21.024;2022-07-29T03:01:33;100971.84;;;13.02;66.85
22031;BME280;11179;52.106;21.024;2022-07-29T03:04:01;100968.56;;;13.05;66.73
22031;BME280;11179;52.106;21.024;2022-07-29T03:06:30;100959.75;;;13.08;66.74
22031;BME280;11179;52.106;21.024;2022-07-29T03:08:57;100960.91;;;13.12;66.65
22031;BME280;11179;52.106;21.024;2022-07-29T03:11:24;100963.41;;;13.14;66.91
22031;BME280;11179;52.106;21.024;2022-07-29T03:13:50;100963.16;;;13.15;67.15
22031;BME280;11179;52.106;21.024;2022-07-29T03:16:16;100967.59;;;13.16;67.13
22031;BME280;11179;52.106;21.024;2022-07-29T03:18:43;100960.69;;;13.19;66.96
22031;BME280;11179;52.106;21.024;2022-07-29T03:21:08;100968.19;;;13.23;66.90
22031;BME280;11179;52.106;21.024;2022-07-29T03:23:34;100971.84;;;13.29;66.94
22031;BME280;11179;52.106;21.024;2022-07-29T03:25:59;100967.19;;;13.34;67.03
22031;BME280;11179;52.106;21.024;2022-07-29T03:28:25;100967.81;;;13.42;66.91
22031;BME280;11179;52.106;21.024;2022-07-29T03:30:52;100966.75;;;13.48;67.23
22031;BME280;11179;52.106;21.024;2022-07-29T03:33:18;100977.38;;;13.61;67.06
22031;BME280;11179;52.106;21.024;2022-07-29T03:35:43;100966.44;;;13.76;67.26
22031;BME280;11179;52.106;21.024;2022-07-29T03:38:08;100962.19;;;13.95;67.29
22031;BME280;11179;52.106;21.024;2022-07-29T03:40:48;100965.41;;;14.24;66.89
22031;BME280;11179;52.106;21.024;2022-07-29T03:43:17;100958.88;;;14.56;66.72
22031;BME280;11179;52.106;21.024;2022-07-29T03:45:46;100962.06;;;14.85;66.48
22031;BME280;11179;52.106;21.024;2022-07-29T03:48:15;100969.06;;;15.28;66.05
22031;BME280;11179;52.106;21.024;2022-07-29T03:50:41;100971.03;;;15.68;65.18
22031;BME280;11179;52.106;21.024;2022-07-29T03:53:07;100970.19;;;15.93;64.28
22031;BME280;11179;52.106;21.024;2022-07-29T03:55:36;100968.78;;;16.10;63.38
22031;BME280;11179;52.106;21.024;2022-07-29T03:58:03;100960.94;;;16.33;62.80
22031;BME280;11179;52.106;21.024;2022-07-29T04:00:29;100962.50;;;16.64;62.08
22031;BME280;11179;52.106;21.024;2022-07-29T04:02:56;100954.69;;;16.76;61.17
22031;BME280;11179;52.106;21.024;2022-07-29T04:05:22;100960.72;;;16.89;60.89
22031;BME280;11179;52.106;21.024;2022-07-29T04:07:47;100967.31;;;17.03;60.19
22031;BME280;11179;52.106;21.024;2022-07-29T04:10:14;100960.19;;;17.26;59.86
22031;BME280;11179;52.106;21.024;2022-07-29T04:12:40;100962.53;;;17.52;59.34
22031;BME280;11179;52.106;21.024;2022-07-29T04:15:06;100965.38;;;17.76;58.70
22031;BME280;11179;52.106;21.024;2022-07-29T04:17:32;100952.69;;;17.94;58.10
22031;BME280;11179;52.106;21.024;2022-07-29T04:19:57;100958.56;;;18.16;57.68
22031;BME280;11179;52.106;21.024;2022-07-29T04:22:23;100961.03;;;18.47;56.81
22031;BME280;11179;52.106;21.024;2022-07-29T04:24:48;100971.44;;;18.79;56.40
22031;BME280;11179;52.106;21.024;2022-07-29T04:27:13;100966.69;;;19.22;55.66
22031;BME280;11179;52.106;21.024;2022-07-29T04:29:39;100964.56;;;19.51;55.00
22031;BME280;11179;52.106;21.024;2022-07-29T04:32:04;100963.19;;;19.67;54.01
22031;BME280;11179;52.106;21.024;2022-07-29T04:34:30;100968.03;;;19.76;53.26
22031;BME280;11179;52.106;21.024;2022-07-29T04:36:55;100963.19;;;19.67;53.05
22031;BME280;11179;52.106;21.024;2022-07-29T04:39:21;100972.13;;;19.64;52.93
22031;BME280;11179;52.106;21.024;2022-07-29T04:41:46;100971.13;;;19.42;53.06
22031;BME280;11179;52.106;21.024;2022-07-29T04:44:12;100972.84;;;19.56;53.03
22031;BME280;11179;52.106;21.024;2022-07-29T04:46:38;100972.38;;;19.49;52.24
22031;BME280;11179;52.106;21.024;2022-07-29T04:49:03;100980.69;;;19.54;52.42
22031;BME280;11179;52.106;21.024;2022-07-29T04:51:29;100985.28;;;19.78;51.82
22031;BME280;11179;52.106;21.024;2022-07-29T04:53:54;100980.06;;;19.90;52.10
22031;BME280;11179;52.106;21.024;2022-07-29T04:56:19;100981.56;;;20.15;51.22
22031;BME280;11179;52.106;21.024;2022-07-29T04:58:45;100983.53;;;20.14;50.83
22031;BME280;11179;52.106;21.024;2022-07-29T05:01:10;100981.06;;;20.26;50.54
22031;BME280;11179;52.106;21.024;2022-07-29T05:03:36;100974.28;;;20.60;50.49
22031;BME280;11179;52.106;21.024;2022-07-29T05:06:01;100979.28;;;21.13;49.56
22031;BME280;11179;52.106;21.024;2022-07-29T05:08:27;100982.28;;;21.52;48.57
22031;BME280;11179;52.106;21.024;2022-07-29T05:10:52;100973.75;;;21.79;48.28
22031;BME280;11179;52.106;21.024;2022-07-29T05:13:17;100984.16;;;22.10;47.42
22031;BME280;11179;52.106;21.024;2022-07-29T05:15:43;100978.34;;;22.37;47.27
22031;BME280;11179;52.106;21.024;2022-07-29T05:18:08;100988.91;;;22.40;47.32
22031;BME280;11179;52.106;21.024;2022-07-29T05:20:33;100998.28;;;22.36;46.57
22031;BME280;11179;52.106;21.024;2022-07-29T05:23:00;100987.66;;;22.55;46.09
22031;BME280;11179;52.106;21.024;2022-07-29T05:25:27;100992.50;;;22.80;46.14
22031;BME280;11179;52.106;21.024;2022-07-29T05:27:53;100993.72;;;23.05;45.51
22031;BME280;11179;52.106;21.024;2022-07-29T05:30:19;100996.06;;;23.46;45.37
22031;BME280;11179;52.106;21.024;2022-07-29T05:32:45;100995.13;;;23.68;43.65
22031;BME280;11179;52.106;21.024;2022-07-29T05:35:10;100997.53;;;23.44;43.68
22031;BME280;11179;52.106;21.024;2022-07-29T05:37:36;100985.56;;;23.69;43.72
22031;BME280;11179;52.106;21.024;2022-07-29T05:40:03;100983.19;;;23.88;42.80
22031;BME280;11179;52.106;21.024;2022-07-29T05:42:28;100993.09;;;23.86;42.91
22031;BME280;11179;52.106;21.024;2022-07-29T05:44:54;100991.63;;;23.54;43.50
22031;BME280;11179;52.106;21.024;2022-07-29T05:47:19;100988.31;;;23.61;43.10
22031;BME280;11179;52.106;21.024;2022-07-29T05:49:45;100983.72;;;23.73;43.69
22031;BME280;11179;52.106;21.024;2022-07-29T05:52:11;100970.97;;;23.84;42.93
22031;BME280;11179;52.106;21.024;2022-07-29T05:54:38;100979.84;;;24.04;43.00
22031;BME280;11179;52.106;21.024;2022-07-29T05:57:03;100970.94;;;24.02;42.57
22031;BME280;11179;52.106;21.024;2022-07-29T05:59:28;100969.03;;;24.40;42.35
22031;BME280;11179;52.106;21.024;2022-07-29T06:01:54;100970.59;;;24.88;41.98
22031;BME280;11179;52.106;21.024;2022-07-29T06:04:19;100972.00;;;25.23;41.18
22031;BME280;11179;52.106;21.024;2022-07-29T06:06:45;100970.25;;;25.73;40.52
22031;BME280;11179;52.106;21.024;2022-07-29T06:09:10;100973.16;;;25.97;40.52
22031;BME280;11179;52.106;21.024;2022-07-29T06:11:35;100967.44;;;26.06;39.85
22031;BME280;11179;52.106;21.024;2022-07-29T06:14:01;100968.56;;;25.80;39.45
22031;BME280;11179;52.106;21.024;2022-07-29T06:16:28;100958.94;;;26.26;39.73
22031;BME280;11179;52.106;21.024;2022-07-29T06:18:53;100963.19;;;26.57;38.30
22031;BME280;11179;52.106;21.024;2022-07-29T06:21:18;100964.00;;;26.33;38.41
22031;BME280;11179;52.106;21.024;2022-07-29T06:23:44;100967.97;;;26.32;38.48
22031;BME280;11179;52.106;21.024;2022-07-29T06:26:10;100969.97;;;26.92;38.15
22031;BME280;11179;52.106;21.024;2022-07-29T06:28:35;100966.16;;;27.25;37.95
22031;BME280;11179;52.106;21.024;2022-07-29T06:31:01;100963.22;;;27.21;37.58
22031;BME280;11179;52.106;21.024;2022-07-29T06:33:26;100966.31;;;27.04;37.50
22031;BME280;11179;52.106;21.024;2022-07-29T06:35:52;100964.34;;;26.92;37.07
22031;BME280;11179;52.106;21.024;2022-07-29T06:38:17;100962.47;;;26.60;37.19
22031;BME280;11179;52.106;21.024;2022-07-29T06:40:44;100967.78;;;26.49;37.55
22031;BME280;11179;52.106;21.024;2022-07-29T06:43:29;100960.72;;;26.80;37.23
22031;BME280;11179;52.106;21.024;2022-07-29T06:45:58;100974.16;;;27.23;36.38
22031;BME280;11179;52.106;21.024;2022-07-29T06:48:23;100972.97;;;27.24;36.21
22031;BME280;11179;52.106;21.024;2022-07-29T06:50:49;100967.13;;;27.57;36.20
22031;BME280;11179;52.106;21.024;2022-07-29T06:53:14;100970.81;;;28.01;35.81
22031;BME280;11179;52.106;21.024;2022-07-29T06:55:40;100971.03;;;28.08;35.36
22031;BME280;11179;52.106;21.024;2022-07-29T06:58:05;100968.28;;;28.43;35.03
22031;BME280;11179;52.106;21.024;2022-07-29T07:00:32;100975.38;;;28.84;34.80
22031;BME280;11179;52.106;21.024;2022-07-29T07:02:57;100970.19;;;29.21;33.93
22031;BME280;11179;52.106;21.024;2022-07-29T07:05:22;100967.16;;;29.49;33.03
22031;BME280;11179;52.106;21.024;2022-07-29T07:07:48;100973.84;;;28.87;33.07
22031;BME280;11179;52.106;21.024;2022-07-29T07:10:13;100956.81;;;28.67;33.69
22031;BME280;11179;52.106;21.024;2022-07-29T07:12:38;100964.84;;;29.16;33.46
22031;BME280;11179;52.106;21.024;2022-07-29T07:15:04;100962.72;;;29.67;32.74
22031;BME280;11179;52.106;21.024;2022-07-29T07:17:30;100965.88;;;29.85;32.55
22031;BME280;11179;52.106;21.024;2022-07-29T07:19:55;100968.09;;;29.18;31.51
22031;BME280;11179;52.106;21.024;2022-07-29T07:22:20;100976.22;;;28.22;33.54
22031;BME280;11179;52.106;21.024;2022-07-29T07:24:46;100964.28;;;27.41;34.30
22031;BME280;11179;52.106;21.024;2022-07-29T07:27:11;100972.81;;;27.45;34.74
22031;BME280;11179;52.106;21.024;2022-07-29T07:29:36;100965.91;;;27.42;34.54
22031;BME280;11179;52.106;21.024;2022-07-29T07:32:02;100967.75;;;26.98;34.40
22031;BME280;11179;52.106;21.024;2022-07-29T07:34:27;100964.69;;;26.54;35.18
22031;BME280;11179;52.106;21.024;2022-07-29T07:36:53;100958.34;;;26.69;35.16
22031;BME280;11179;52.106;21.024;2022-07-29T07:39:18;100965.66;;;27.35;34.71
22031;BME280;11179;52.106;21.024;2022-07-29T07:41:44;100971.28;;;27.75;34.04
22031;BME280;11179;52.106;21.024;2022-07-29T07:44:09;100973.44;;;28.09;33.64
22031;BME280;11179;52.106;21.024;2022-07-29T07:46:34;100969.44;;;28.10;33.55
22031;BME280;11179;52.106;21.024;2022-07-29T07:49:00;100966.19;;;28.24;33.68
22031;BME280;11179;52.106;21.024;2022-07-29T07:51:25;100970.03;;;27.88;33.06
22031;BME280;11179;52.106;21.024;2022-07-29T07:53:50;100966.41;;;27.60;33.34
22031;BME280;11179;52.106;21.024;2022-07-29T07:56:16;100976.38;;;27.29;34.39
22031;BME280;11179;52.106;21.024;2022-07-29T07:58:42;100964.06;;;27.62;34.42
22031;BME280;11179;52.106;21.024;2022-07-29T08:01:08;100967.28;;;28.51;33.86
22031;BME280;11179;52.106;21.024;2022-07-29T08:03:34;100970.00;;;28.79;32.37
22031;BME280;11179;52.106;21.024;2022-07-29T08:05:59;100958.16;;;29.08;33.01
22031;BME280;11179;52.106;21.024;2022-07-29T08:08:25;100965.22;;;29.34;32.09
22031;BME280;11179;52.106;21.024;2022-07-29T08:10:50;100952.97;;;29.65;31.90
22031;BME280;11179;52.106;21.024;2022-07-29T08:13:21;100953.16;;;29.75;31.09
22031;BME280;11179;52.106;21.024;2022-07-29T08:15:47;100961.06;;;29.28;31.50
22031;BME280;11179;52.106;21.024;2022-07-29T08:18:13;100967.53;;;28.77;31.85
22031;BME280;11179;52.106;21.024;2022-07-29T08:20:39;100963.59;;;28.98;32.06
22031;BME280;11179;52.106;21.024;2022-07-29T08:23:06;100957.56;;;29.53;31.96
22031;BME280;11179;52.106;21.024;2022-07-29T08:25:40;100957.69;;;29.61;31.33
22031;BME280;11179;52.106;21.024;2022-07-29T08:28:05;100956.22;;;29.28;31.78
22031;BME280;11179;52.106;21.024;2022-07-29T08:30:31;100957.34;;;29.08;31.87
22031;BME280;11179;52.106;21.024;2022-07-29T08:32:57;100950.88;;;29.42;31.62
22031;BME280;11179;52.106;21.024;2022-07-29T08:35:23;100957.56;;;29.34;30.88
22031;BME280;11179;52.106;21.024;2022-07-29T08:37:50;100956.25;;;29.67;30.86
22031;BME280;11179;52.106;21.024;2022-07-29T08:40:15;100961.59;;;29.72;30.27
22031;BME280;11179;52.106;21.024;2022-07-29T08:42:41;100953.53;;;29.55;30.50
22031;BME280;11179;52.106;21.024;2022-07-29T08:45:06;100959.44;;;29.65;30.46
22031;BME280;11179;52.106;21.024;2022-07-29T08:47:32;100961.44;;;29.65;30.83
22031;BME280;11179;52.106;21.024;2022-07-29T08:49:58;100952.44;;;29.40;31.08
22031;BME280;11179;52.106;21.024;2022-07-29T08:52:28;100947.03;;;28.80;31.09
22031;BME280;11179;52.106;21.024;2022-07-29T08:54:57;100950.47;;;28.90;31.15
22031;BME280;11179;52.106;21.024;2022-07-29T08:57:24;100951.50;;;29.16;30.41
22031;BME280;11179;52.106;21.024;2022-07-29T08:59:50;100958.19;;;28.58;30.61
22031;BME280;11179;52.106;21.024;2022-07-29T09:02:21;100953.56;;;27.34;31.99
22031;BME280;11179;52.106;21.024;2022-07-29T09:04:48;100951.84;;;27.58;33.07
22031;BME280;11179;52.106;21.024;2022-07-29T09:07:18;100945.13;;;28.53;31.72
22031;BME280;11179;52.106;21.024;2022-07-29T09:09:44;100944.53;;;28.95;31.01
22031;BME280;11179;52.106;21.024;2022-07-29T09:12:10;100934.78;;;29.46;29.62
22031;BME280;11179;52.106;21.024;2022-07-29T09:14:39;100943.88;;;29.56;30.01
22031;BME280;11179;52.106;21.024;2022-07-29T09:17:05;100947.41;;;29.91;29.57
22031;BME280;11179;52.106;21.024;2022-07-29T09:19:35;100933.19;;;29.87;28.91
22031;BME280;11179;52.106;21.024;2022-07-29T09:22:04;100948.41;;;29.06;28.09
22031;BME280;11179;52.106;21.024;2022-07-29T09:24:59;100949.88;;;28.65;29.30
22031;BME280;11179;52.106;21.024;2022-07-29T09:27:25;100942.63;;;28.99;29.74
22031;BME280;11179;52.106;21.024;2022-07-29T09:32:26;100940.69;;;28.21;29.66
22031;BME280;11179;52.106;21.024;2022-07-29T09:35:18;100936.88;;;27.41;31.29
22031;BME280;11179;52.106;21.024;2022-07-29T09:37:44;100932.75;;;26.99;31.99
22031;BME280;11179;52.106;21.024;2022-07-29T09:40:30;100932.06;;;26.65;32.05
22031;BME280;11179;52.106;21.024;2022-07-29T09:42:55;100932.56;;;26.80;32.66
22031;BME280;11179;52.106;21.024;2022-07-29T09:45:30;100933.50;;;26.59;32.40
22031;BME280;11179;52.106;21.024;2022-07-29T09:47:56;100924.69;;;26.85;32.12
22031;BME280;11179;52.106;21.024;2022-07-29T09:50:38;100926.69;;;27.25;31.75
22031;BME280;11179;52.106;21.024;2022-07-29T09:53:04;100929.22;;;26.90;31.60
22031;BME280;11179;52.106;21.024;2022-07-29T09:55:30;100926.44;;;26.65;32.29
22031;BME280;11179;52.106;21.024;2022-07-29T09:58:14;100927.88;;;26.23;32.61
22031;BME280;11179;52.106;21.024;2022-07-29T10:00:42;100920.25;;;26.48;32.22
22031;BME280;11179;52.106;21.024;2022-07-29T10:03:07;100922.22;;;26.59;31.78
22031;BME280;11179;52.106;21.024;2022-07-29T10:05:33;100918.94;;;26.82;31.67
22031;BME280;11179;52.106;21.024;2022-07-29T10:07:58;100913.06;;;26.75;31.73
22031;BME280;11179;52.106;21.024;2022-07-29T10:10:25;100915.66;;;26.43;31.43
22031;BME280;11179;52.106;21.024;2022-07-29T10:13:02;100917.06;;;26.25;32.23
22031;BME280;11179;52.106;21.024;2022-07-29T10:15:32;100915.44;;;26.48;31.74
22031;BME280;11179;52.106;21.024;2022-07-29T10:17:59;100910.72;;;26.52;31.93
22031;BME280;11179;52.106;21.024;2022-07-29T10:20:26;100905.31;;;26.84;32.20
22031;BME280;11179;52.106;21.024;2022-07-29T10:22:53;100911.31;;;26.58;33.02
22031;BME280;11179;52.106;21.024;2022-07-29T10:25:19;100896.91;;;26.23;33.25
22031;BME280;11179;52.106;21.024;2022-07-29T10:27:46;100899.78;;;26.14;32.87
22031;BME280;11179;52.106;21.024;2022-07-29T10:30:13;100894.81;;;25.87;33.27
22031;BME280;11179;52.106;21.024;2022-07-29T10:35:44;100901.13;;;26.29;32.54
22031;BME280;11179;52.106;21.024;2022-07-29T10:43:59;100895.38;;;27.14;31.05
22031;BME280;11179;52.106;21.024;2022-07-29T10:46:25;100901.78;;;27.27;31.13
22031;BME280;11179;52.106;21.024;2022-07-29T10:49:12;100885.88;;;27.34;31.65
22031;BME280;11179;52.106;21.024;2022-07-29T10:54:15;100884.88;;;27.55;30.63
22031;BME280;11179;52.106;21.024;2022-07-29T10:56:41;100885.69;;;27.27;30.61
22031;BME280;11179;52.106;21.024;2022-07-29T11:01:53;100882.91;;;26.38;31.53
22031;BME280;11179;52.106;21.024;2022-07-29T11:07:14;100878.56;;;26.53;32.28
22031;BME280;11179;52.106;21.024;2022-07-29T11:09:41;100874.38;;;26.35;32.13
22031;BME280;11179;52.106;21.024;2022-07-29T11:15:10;100874.34;;;26.59;33.06
22031;BME280;11179;52.106;21.024;2022-07-29T11:20:40;100876.91;;;26.03;32.10
22031;BME280;11179;52.106;21.024;2022-07-29T11:25:45;100864.00;;;25.90;32.75
22031;BME280;11179;52.106;21.024;2022-07-29T11:28:15;100862.00;;;25.91;33.24
22031;BME280;11179;52.106;21.024;2022-07-29T11:30:49;100865.03;;;25.74;32.91
22031;BME280;11179;52.106;21.024;2022-07-29T11:33:32;100872.13;;;25.59;32.70
22031;BME280;11179;52.106;21.024;2022-07-29T11:36:12;100866.88;;;25.57;33.08
22031;BME280;11179;52.106;21.024;2022-07-29T11:38:38;100858.50;;;25.82;32.67
22031;BME280;11179;52.106;21.024;2022-07-29T11:41:26;100860.72;;;26.00;32.39
22031;BME280;11179;52.106;21.024;2022-07-29T11:43:59;100857.50;;;26.23;32.67
22031;BME280;11179;52.106;21.024;2022-07-29T11:49:19;100850.91;;;25.94;32.59
22031;BME280;11179;52.106;21.024;2022-07-29T11:51:50;100852.53;;;26.08;32.94
22031;BME280;11179;52.106;21.024;2022-07-29T11:54:27;100844.78;;;26.17;32.02
22031;BME280;11179;52.106;21.024;2022-07-29T11:56:57;100849.41;;;26.33;32.29
22031;BME280;11179;52.106;21.024;2022-07-29T11:59:24;100847.81;;;26.12;31.71
22031;BME280;11179;52.106;21.024;2022-07-29T12:01:57;100853.47;;;25.99;31.67
22031;BME280;11179;52.106;21.024;2022-07-29T12:04:22;100847.25;;;25.94;31.77
22031;BME280;11179;52.106;21.024;2022-07-29T12:06:55;100842.50;;;25.61;31.84
22031;BME280;11179;52.106;21.024;2022-07-29T12:09:22;100851.44;;;25.63;31.69
22031;BME280;11179;52.106;21.024;2022-07-29T12:11:49;100841.22;;;25.71;31.88
22031;BME280;11179;52.106;21.024;2022-07-29T12:14:31;100841.50;;;25.90;32.02
22031;BME280;11179;52.106;21.024;2022-07-29T12:16:58;100838.66;;;25.66;32.34
22031;BME280;11179;52.106;21.024;2022-07-29T12:19:23;100840.03;;;25.60;31.94
22031;BME280;11179;52.106;21.024;2022-07-29T12:21:54;100836.56;;;25.99;32.09
22031;BME280;11179;52.106;21.024;2022-07-29T12:24:20;100835.41;;;26.37;31.03
22031;BME280;11179;52.106;21.024;2022-07-29T12:27:04;100837.84;;;26.63;31.53
22031;BME280;11179;52.106;21.024;2022-07-29T12:29:29;100845.50;;;26.26;31.10
22031;BME280;11179;52.106;21.024;2022-07-29T12:31:55;100826.97;;;26.00;31.42
22031;BME280;11179;52.106;21.024;2022-07-29T12:34:23;100827.78;;;26.01;31.62
22031;BME280;11179;52.106;21.024;2022-07-29T12:36:49;100819.25;;;26.10;31.53
22031;BME280;11179;52.106;21.024;2022-07-29T12:39:18;100813.34;;;26.15;31.32
22031;BME280;11179;52.106;21.024;2022-07-29T12:41:44;100827.44;;;26.15;31.30
22031;BME280;11179;52.106;21.024;2022-07-29T12:44:10;100819.00;;;26.15;31.00
22031;BME280;11179;52.106;21.024;2022-07-29T12:46:35;100825.47;;;26.27;30.87
22031;BME280;11179;52.106;21.024;2022-07-29T12:49:01;100817.59;;;26.33;30.74
22031;BME280;11179;52.106;21.024;2022-07-29T12:51:32;100820.28;;;26.29;30.88
22031;BME280;11179;52.106;21.024;2022-07-29T12:56:29;100827.56;;;25.82;30.75
22031;BME280;11179;52.106;21.024;2022-07-29T12:58:55;100817.22;;;25.74;30.56
22031;BME280;11179;52.106;21.024;2022-07-29T13:01:20;100812.69;;;25.93;30.07
22031;BME280;11179;52.106;21.024;2022-07-29T13:03:51;100810.81;;;26.10;30.19
22031;BME280;11179;52.106;21.024;2022-07-29T13:06:42;100806.34;;;26.33;31.04
22031;BME280;11179;52.106;21.024;2022-07-29T13:14:09;100802.03;;;26.76;31.62
22031;BME280;11179;52.106;21.024;2022-07-29T13:16:37;100790.97;;;26.83;30.76
22031;BME280;11179;52.106;21.024;2022-07-29T13:19:10;100797.56;;;26.75;29.96
22031;BME280;11179;52.106;21.024;2022-07-29T13:21:38;100795.84;;;26.58;29.94
22031;BME280;11179;52.106;21.024;2022-07-29T13:24:06;100795.22;;;26.64;30.31
22031;BME280;11179;52.106;21.024;2022-07-29T13:26:32;100803.94;;;26.59;30.36
22031;BME280;11179;52.106;21.024;2022-07-29T13:28:57;100787.53;;;26.37;29.89
22031;BME280;11179;52.106;21.024;2022-07-29T13:31:23;100786.59;;;26.45;30.49
22031;BME280;11179;52.106;21.024;2022-07-29T13:33:48;100798.06;;;26.52;30.11
22031;BME280;11179;52.106;21.024;2022-07-29T13:36:14;100789.53;;;26.49;30.53